Flight Track Log - Related Links

Times and Time Zones

All times are in EDT time to prevent confusion due to time zone crossing. See the ASQ5506 flight status page for this flight to view local times or setup timezone preferences in your user account.

Time Position Orientation Groundspeed Altitude Reporting Facility
EDT Latitude Longitude Course Direction KTS MPH feet Rate Location/Type
Mon 05:43:06 PM 32.3786 -86.2106 55° Northeast 287 330 7,500  Level Atlanta Center
Mon 05:44:06 PM 32.4322 -86.1331 51° Northeast 299 344 10,200 2,800 Climbing Atlanta Center
Mon 05:45:06 PM 32.4858 -86.0531 52° Northeast 304 350 13,100 2,700 Climbing Atlanta Center
Mon 05:46:06 PM 32.5414 -85.9706 51° Northeast 304 350 15,600 1,950 Climbing Atlanta Center
Mon 05:47:06 PM 32.6011 -85.8806 52° Northeast 324 373 17,000 700 Climbing Atlanta Center
Mon 05:48:00 PM 32.5627 -85.9512 55° Northeast  Level FlightAware Approximate
Mon 05:48:06 PM 32.6672 -85.7808 52° Northeast 353 406 17,000  Level Atlanta Center
Mon 05:49:06 PM 32.7356 -85.6811 51° Northeast 374 430 17,000  Level Atlanta Center
Mon 05:50:06 PM 32.8017 -85.5783 53° Northeast 385 443 17,000  Level Atlanta Center
Mon 05:51:07 PM 32.8694 -85.4806 50° Northeast 391 450 17,000  Level Atlanta Center
Mon 05:52:06 PM 32.9353 -85.3778 53° Northeast 391 450 17,000  Level Atlanta Center
Mon 05:53:06 PM 32.9783 -85.2547 67° East 386 444 17,000 -400 Level Atlanta Center
Mon 05:54:06 PM 33.0189 -85.1511 65° Northeast 386 444 16,200 -1,150 Descending Atlanta Center
Mon 05:55:06 PM 33.0722 -85.0256 63° Northeast 380 437 14,700 -1,100 Descending Atlanta Center
Mon 05:56:06 PM 33.1686 -85.0017 12° North 329 379 14,000 -450 Descending Atlanta Center
Mon 05:57:06 PM 33.2525 -84.9456 29° Northeast 335 386 13,800 -700 Descending Atlanta Center
Mon 05:58:06 PM 33.3261 -84.8467 48° Northeast 360 414 12,600 -900 Descending Atlanta Center
Mon 05:59:06 PM 33.3956 -84.7503 49° Northeast 384 442 12,000 -409 Descending Atlanta Center
Mon 05:59:34 PM 33.4333 -84.7000 48° Northeast 379 436 12,000  Level Atlanta TRACON
Mon 06:00:34 PM 33.4833 -84.6167 54° Northeast 311 358 12,000 -50 Level Atlanta TRACON
Mon 06:01:34 PM 33.5333 -84.5500 48° Northeast 264 304 11,900 -750 Descending Atlanta TRACON
Mon 06:02:34 PM 33.5500 -84.4500 79° East 269 310 10,500 -1,619 Descending Atlanta TRACON
Mon 06:03:40 PM 33.5500 -84.3667 90° East 258 297 8,500 -1,810 Descending Atlanta TRACON
Mon 06:04:40 PM 33.5500 -84.2833 90° East 233 268 6,700 -1,700 Descending Atlanta TRACON
Mon 06:05:40 PM 33.5500 -84.2167 90° East 233 268 5,100 -1,050 Descending Atlanta TRACON
Mon 06:06:40 PM 33.6000 -84.2167 360° North 215 247 4,600 -750 Descending Atlanta TRACON
Mon 06:07:40 PM 33.6167 -84.2667 292° West 193 222 3,600 -1,150 Descending Atlanta TRACON
Mon 06:08:40 PM 33.6167 -84.3333 270° West 184 212 2,300 -992 Descending Atlanta TRACON
Mon 06:09:41 PM 33.6167 -84.3833 270° West 140 161 1,600 -689 Descending Atlanta TRACON
Mon 06:11:00 PM 33.6333 -84.4167 301° West  Level FlightAware Approximate
Mon 06:18:00 PM 33.6367 -84.4279 301° West  Level Estimated
Mon 06:19:00 PM 33.6367 -84.4279 301° West  Level Estimated

Login

Don't have an account? Register now (free) for customized features, flight alerts, and more!